Time;durP1;ratioP1;P1;durP2;ratioP2;P2;SDS_P1;SDS_P2;PMS_P1;PMS_P2;Temp;Humidity;BMP_temperature;BMP_pressure;BME280_temperature;BME280_humidity;BME280_pressure;Samples;Min_cycle;Max_cycle;Signal;HPM_P1;HPM_P2
2023/12/14 00:01:40;;;;;;;;;;;;;;;0.99;59.95;101058.19;4984882;28;20032;-71
2023/12/14 00:04:06;;;;;;;;;;;;;;;1.09;59.90;101057.34;4987200;28;20036;-71
2023/12/14 00:06:31;;;;;;;;;;;;;;;1.02;60.35;101067.63;4987223;28;19921;-71
2023/12/14 00:08:56;;;;;;;;;;;;;;;0.94;60.19;101065.00;4987489;28;19926;-71
2023/12/14 00:11:22;;;;;;;;;;;;;;;0.64;61.24;101066.63;4990064;28;19917;-71
2023/12/14 00:13:47;;;;;;;;;;;;;;;1.07;59.74;101077.06;4978348;28;19925;-73
2023/12/14 00:16:13;;;;;;;;;;;;;;;0.99;60.15;101073.63;4972013;28;20415;-76
2023/12/14 00:18:38;;;;;;;;;;;;;;;1.03;59.65;101080.47;4979687;28;19948;-71
2023/12/14 00:21:04;;;;;;;;;;;;;;;0.87;60.52;101078.72;4989552;28;19917;-71
2023/12/14 00:23:29;;;;;;;;;;;;;;;0.90;60.17;101083.88;4983527;28;20533;-70
2023/12/14 00:25:54;;;;;;;;;;;;;;;1.07;59.85;101089.94;4988391;28;19920;-71
2023/12/14 00:28:20;;;;;;;;;;;;;;;1.18;59.70;101094.25;4986330;28;20705;-71
2023/12/14 00:30:45;;;;;;;;;;;;;;;1.04;60.24;101089.94;4983140;28;20384;-70
2023/12/14 00:33:10;;;;;;;;;;;;;;;1.09;59.77;101093.38;4986878;28;19921;-71
2023/12/14 00:35:36;;;;;;;;;;;;;;;0.99;60.09;101099.38;4982741;28;22632;-70
2023/12/14 00:38:01;;;;;;;;;;;;;;;0.96;60.12;101099.34;4988392;28;19943;-71
2023/12/14 00:40:26;;;;;;;;;;;;;;;1.24;59.47;101104.59;4992251;28;19920;-71
2023/12/14 00:42:52;;;;;;;;;;;;;;;1.32;59.28;101102.88;4986971;28;19959;-70
2023/12/14 00:45:17;;;;;;;;;;;;;;;1.25;58.89;101106.28;4991853;28;19928;-71
2023/12/14 00:47:43;;;;;;;;;;;;;;;1.11;59.08;101107.13;4974076;28;19917;-70
2023/12/14 00:50:08;;;;;;;;;;;;;;;1.26;59.21;101119.19;4991806;28;19920;-70
2023/12/14 00:52:33;;;;;;;;;;;;;;;1.22;58.89;101126.91;4968130;28;20079;-71
2023/12/14 00:54:59;;;;;;;;;;;;;;;1.31;58.92;101127.78;4993052;28;20622;-70
2023/12/14 00:57:24;;;;;;;;;;;;;;;1.13;59.12;101130.31;4990261;28;19923;-70
2023/12/14 00:59:49;;;;;;;;;;;;;;;1.01;59.53;101143.97;4987601;28;20964;-71
2023/12/14 01:02:15;;;;;;;;;;;;;;;1.01;59.74;101154.25;4990696;28;20415;-70
2023/12/14 01:04:41;;;;;;;;;;;;;;;0.97;59.98;101149.97;4987173;28;19922;-69
2023/12/14 01:07:07;;;;;;;;;;;;;;;1.09;59.37;101159.47;4996303;28;19913;-69
2023/12/14 01:09:32;;;;;;;;;;;;;;;0.97;59.88;101161.97;4986575;28;19921;-69
2023/12/14 01:11:58;;;;;;;;;;;;;;;1.06;59.45;101175.75;4990282;28;19917;-69
2023/12/14 01:14:23;;;;;;;;;;;;;;;1.13;59.37;101178.34;4991759;28;19922;-68
2023/12/14 01:16:48;;;;;;;;;;;;;;;0.99;59.68;101181.72;4984884;28;20410;-66
2023/12/14 01:19:14;;;;;;;;;;;;;;;0.95;59.79;101185.13;4988109;28;20463;-67
2023/12/14 01:21:39;;;;;;;;;;;;;;;1.18;58.97;101189.53;4987335;28;19929;-67
2023/12/14 01:24:05;;;;;;;;;;;;;;;0.96;59.96;101189.41;4989075;28;19921;-67
2023/12/14 01:26:30;;;;;;;;;;;;;;;1.00;59.62;101190.31;4993522;28;20411;-66
2023/12/14 01:28:56;;;;;;;;;;;;;;;0.90;59.65;101197.09;4984295;28;19917;-67
2023/12/14 01:31:24;;;;;;;;;;;;;;;0.95;59.72;101200.59;4974481;28;19921;-67
2023/12/14 01:33:50;;;;;;;;;;;;;;;0.86;60.09;101205.69;4984164;28;19925;-67
2023/12/14 01:36:25;;;;;;;;;;;;;;;0.99;60.15;101204.91;4991552;28;19917;-67
2023/12/14 01:38:51;;;;;;;;;;;;;;;0.95;59.72;101202.28;4983424;28;19921;-66
2023/12/14 01:41:16;;;;;;;;;;;;;;;1.20;59.52;101205.84;4990763;28;19940;-69
2023/12/14 01:43:42;;;;;;;;;;;;;;;1.20;59.30;101208.41;4968300;28;19925;-69
2023/12/14 01:46:07;;;;;;;;;;;;;;;1.11;59.43;101207.53;4990316;28;20343;-70
2023/12/14 01:48:33;;;;;;;;;;;;;;;1.07;59.43;101210.06;4984339;28;19922;-71
2023/12/14 01:50:58;;;;;;;;;;;;;;;0.95;59.52;101215.16;4986032;28;19923;-70
2023/12/14 01:53:23;;;;;;;;;;;;;;;0.97;59.79;101216.91;4990569;28;19921;-71
2023/12/14 01:55:49;;;;;;;;;;;;;;;1.05;59.34;101217.78;4984869;28;19940;-71
2023/12/14 01:58:14;;;;;;;;;;;;;;;1.05;59.63;101229.78;4987950;28;20598;-70
2023/12/14 02:00:43;;;;;;;;;;;;;;;0.84;59.92;101230.53;4983985;28;20351;-71
2023/12/14 02:03:09;;;;;;;;;;;;;;;0.90;59.87;101228.88;4989762;28;19971;-71
2023/12/14 02:05:34;;;;;;;;;;;;;;;1.02;59.72;101233.22;4988908;28;19921;-71
2023/12/14 02:07:59;;;;;;;;;;;;;;;0.68;60.12;101235.59;4985448;28;19972;-71
2023/12/14 02:10:25;;;;;;;;;;;;;;;1.08;59.47;101238.41;4992534;28;19917;-70
2023/12/14 02:12:50;;;;;;;;;;;;;;;1.11;59.18;101233.25;4983471;28;19921;-71
2023/12/14 02:15:15;;;;;;;;;;;;;;;1.04;59.20;101234.09;4990179;28;20614;-70
2023/12/14 02:17:41;;;;;;;;;;;;;;;1.15;58.94;101233.28;4982979;28;20339;-71
2023/12/14 02:20:06;;;;;;;;;;;;;;;1.12;59.20;101234.13;4991083;28;19917;-71
2023/12/14 02:22:34;;;;;;;;;;;;;;;1.17;58.94;101244.44;4990020;28;19925;-77
2023/12/14 02:24:59;;;;;;;;;;;;;;;1.14;58.99;101241.84;4970515;28;20317;-77
2023/12/14 02:27:25;;;;;;;;;;;;;;;1.19;59.03;101246.16;4989566;28;19956;-76
2023/12/14 02:29:50;;;;;;;;;;;;;;;1.21;59.26;101243.59;4987149;28;19916;-78
2023/12/14 02:32:15;;;;;;;;;;;;;;;1.22;59.07;101245.34;4973509;28;19952;-72
2023/12/14 02:34:41;;;;;;;;;;;;;;;1.21;58.68;101252.19;4984314;28;20304;-72
2023/12/14 02:37:06;;;;;;;;;;;;;;;1.37;59.15;101258.25;4989916;28;19918;-72
2023/12/14 02:39:32;;;;;;;;;;;;;;;1.32;58.88;101254.81;4987682;28;19967;-72
2023/12/14 02:41:57;;;;;;;;;;;;;;;1.41;58.67;101257.47;4969404;28;19921;-72
2023/12/14 02:44:22;;;;;;;;;;;;;;;1.29;58.79;101257.38;4988640;28;20399;-73
2023/12/14 02:46:48;;;;;;;;;;;;;;;1.39;58.55;101258.28;4983922;28;19920;-72
2023/12/14 02:49:13;;;;;;;;;;;;;;;1.20;59.05;101259.91;4984199;28;19961;-72
2023/12/14 02:51:38;;;;;;;;;;;;;;;1.15;59.32;101259.91;4967105;28;19924;-72
2023/12/14 02:54:04;;;;;;;;;;;;;;;1.08;59.22;101258.13;4980483;28;20077;-72
2023/12/14 02:56:29;;;;;;;;;;;;;;;1.20;59.16;101262.50;4976247;28;19913;-73
2023/12/14 02:58:54;;;;;;;;;;;;;;;1.30;59.10;101269.41;4981389;28;19923;-73
2023/12/14 03:01:23;;;;;;;;;;;;;;;1.28;59.08;101277.13;4989731;28;20012;-76
2023/12/14 03:03:49;;;;;;;;;;;;;;;1.37;58.74;101280.59;4978799;28;19917;-76
2023/12/14 03:06:14;;;;;;;;;;;;;;;1.35;58.62;101278.03;4991475;28;19917;-76
2023/12/14 03:08:40;;;;;;;;;;;;;;;1.46;58.58;101280.66;4986038;28;19933;-76
2023/12/14 03:11:05;;;;;;;;;;;;;;;1.18;59.05;101289.94;4986769;28;19918;-77
2023/12/14 03:13:30;;;;;;;;;;;;;;;1.19;59.47;101294.22;4991717;28;20031;-76
2023/12/14 03:15:56;;;;;;;;;;;;;;;1.24;59.03;101292.56;4982372;28;19952;-70
2023/12/14 03:18:21;;;;;;;;;;;;;;;1.01;59.47;101297.56;4988170;28;19917;-70
2023/12/14 03:20:47;;;;;;;;;;;;;;;1.28;58.95;101302.00;4966010;28;20686;-67
2023/12/14 03:23:12;;;;;;;;;;;;;;;1.24;59.03;101305.44;4988796;28;19921;-68
2023/12/14 03:25:37;;;;;;;;;;;;;;;1.30;58.62;101301.19;4987676;28;19917;-68
2023/12/14 03:28:03;;;;;;;;;;;;;;;1.16;59.05;101302.81;4982169;28;20151;-68
2023/12/14 03:30:28;;;;;;;;;;;;;;;1.22;59.08;101304.56;4989379;28;19917;-68
2023/12/14 03:32:53;;;;;;;;;;;;;;;1.26;59.18;101301.13;4981817;28;19917;-68
2023/12/14 03:35:19;;;;;;;;;;;;;;;1.15;59.20;101310.50;4987773;28;20482;-68
2023/12/14 03:37:44;;;;;;;;;;;;;;;1.04;59.26;101313.91;4981417;28;19932;-68
2023/12/14 03:40:10;;;;;;;;;;;;;;;0.97;59.41;101327.59;4987553;28;20513;-68
2023/12/14 03:42:35;;;;;;;;;;;;;;;1.07;58.96;101329.34;4988454;28;20989;-68
2023/12/14 03:45:00;;;;;;;;;;;;;;;1.17;58.66;101337.13;4983216;28;20443;-68
2023/12/14 03:47:26;;;;;;;;;;;;;;;0.96;59.53;101338.72;4987298;28;20001;-68
2023/12/14 03:49:51;;;;;;;;;;;;;;;0.77;59.58;101340.28;4984052;28;19914;-68
2023/12/14 03:52:16;;;;;;;;;;;;;;;1.02;59.35;101341.34;4986471;28;19965;-68
2023/12/14 03:54:42;;;;;;;;;;;;;;;0.98;59.02;101349.88;4986098;28;19967;-69
2023/12/14 03:57:07;;;;;;;;;;;;;;;0.85;59.29;101338.63;4982900;28;20045;-68
2023/12/14 03:59:33;;;;;;;;;;;;;;;0.77;59.67;101357.41;4989396;28;20292;-68
2023/12/14 04:01:58;;;;;;;;;;;;;;;0.82;59.26;101348.91;4985091;28;19914;-71
2023/12/14 04:04:24;;;;;;;;;;;;;;;0.79;59.81;101355.72;4988190;28;19922;-71
2023/12/14 04:06:51;;;;;;;;;;;;;;;0.85;59.48;101368.66;4983932;28;19940;-73
2023/12/14 04:09:16;;;;;;;;;;;;;;;0.81;59.54;101372.91;4987207;28;19983;-72
2023/12/14 04:11:42;;;;;;;;;;;;;;;0.65;60.19;101374.47;4973600;28;20380;-72
2023/12/14 04:14:07;;;;;;;;;;;;;;;0.97;59.13;101375.59;4986716;28;19925;-72
2023/12/14 04:16:32;;;;;;;;;;;;;;;1.04;59.04;101370.53;4977670;28;20311;-73
2023/12/14 04:18:58;;;;;;;;;;;;;;;1.04;59.10;101369.69;4984564;28;19924;-74
2023/12/14 04:21:23;;;;;;;;;;;;;;;1.17;58.75;101370.59;4976036;28;19979;-72
2023/12/14 04:23:48;;;;;;;;;;;;;;;1.14;58.60;101378.31;4988038;28;19921;-72
2023/12/14 04:26:14;;;;;;;;;;;;;;;1.00;59.15;101379.06;4990887;28;19967;-73
2023/12/14 04:28:39;;;;;;;;;;;;;;;1.07;59.11;101380.84;4992899;28;19925;-73
2023/12/14 04:31:05;;;;;;;;;;;;;;;1.10;58.83;101383.47;4991259;28;20016;-74
2023/12/14 04:33:31;;;;;;;;;;;;;;;0.99;59.00;101381.63;4978944;28;19968;-75
2023/12/14 04:35:57;;;;;;;;;;;;;;;0.75;59.76;101388.31;4986379;28;19956;-75
2023/12/14 04:38:22;;;;;;;;;;;;;;;0.99;58.97;101385.09;4997304;28;20398;-74
2023/12/14 04:40:48;;;;;;;;;;;;;;;0.98;58.97;101395.34;4972693;28;19921;-73
2023/12/14 04:43:13;;;;;;;;;;;;;;;1.25;58.17;101395.56;4989726;28;20016;-72
2023/12/14 04:45:38;;;;;;;;;;;;;;;1.11;58.53;101399.75;5007125;28;20423;-72
2023/12/14 04:48:04;;;;;;;;;;;;;;;0.99;58.94;101403.09;4988150;28;20408;-73
2023/12/14 04:50:29;;;;;;;;;;;;;;;0.97;58.93;101412.53;4991964;28;19921;-69
2023/12/14 04:52:54;;;;;;;;;;;;;;;1.06;58.44;101409.13;4985890;28;20004;-69
2023/12/14 04:55:20;;;;;;;;;;;;;;;1.01;58.74;101406.53;4992670;28;19921;-68
2023/12/14 04:57:46;;;;;;;;;;;;;;;0.93;59.12;101417.63;4988578;28;19960;-69
2023/12/14 05:00:12;;;;;;;;;;;;;;;1.00;58.93;101417.69;4990808;28;19924;-68
2023/12/14 05:02:37;;;;;;;;;;;;;;;0.89;59.05;101417.59;4990983;28;19932;-69
2023/12/14 05:05:02;;;;;;;;;;;;;;;0.98;59.08;101421.97;4970401;28;19917;-68
2023/12/14 05:07:29;;;;;;;;;;;;;;;1.09;58.93;101428.06;4989658;28;19909;-68
2023/12/14 05:09:55;;;;;;;;;;;;;;;1.11;58.99;101430.66;4986820;28;19917;-68
2023/12/14 05:12:20;;;;;;;;;;;;;;;1.11;58.77;101428.94;4971877;28;20479;-67
2023/12/14 05:14:45;;;;;;;;;;;;;;;1.10;58.88;101436.63;4990403;28;19918;-67
2023/12/14 05:17:11;;;;;;;;;;;;;;;1.20;58.88;101447.91;4967693;28;19921;-67
2023/12/14 05:19:37;;;;;;;;;;;;;;;1.31;58.99;101446.25;4991936;28;19917;-68
2023/12/14 05:22:02;;;;;;;;;;;;;;;1.26;58.84;101445.34;4985788;28;19940;-68
2023/12/14 05:24:27;;;;;;;;;;;;;;;1.36;58.75;101444.56;4988534;28;19917;-68
2023/12/14 05:26:53;;;;;;;;;;;;;;;1.22;58.54;101451.34;4988014;28;20347;-68
2023/12/14 05:29:20;;;;;;;;;;;;;;;1.29;58.47;101456.53;4987546;28;19925;-67
2023/12/14 05:31:46;;;;;;;;;;;;;;;1.25;58.66;101454.78;4990363;28;19917;-68
2023/12/14 05:34:11;;;;;;;;;;;;;;;1.30;58.70;101459.97;4983844;28;19928;-68
2023/12/14 05:36:36;;;;;;;;;;;;;;;1.31;58.72;101464.28;4991090;28;19913;-68
2023/12/14 05:39:03;;;;;;;;;;;;;;;1.24;58.74;101468.53;4983158;28;19929;-66
2023/12/14 05:41:29;;;;;;;;;;;;;;;1.36;58.65;101474.63;4990383;28;19917;-70
2023/12/14 05:43:55;;;;;;;;;;;;;;;1.32;58.67;101478.88;4984676;28;20499;-71
2023/12/14 05:46:23;;;;;;;;;;;;;;;1.34;58.47;101479.75;4976225;28;20044;-70
2023/12/14 05:48:51;;;;;;;;;;;;;;;1.45;57.96;101483.31;4985349;28;19921;-66
2023/12/14 05:51:30;;;;;;;;;;;;;;;1.35;58.64;101483.19;4988602;28;20011;-70
2023/12/14 05:53:55;;;;;;;;;;;;;;;1.30;58.39;101501.19;4985000;28;19921;-70
2023/12/14 05:56:20;;;;;;;;;;;;;;;1.24;58.44;101499.44;4990160;28;19928;-70
2023/12/14 05:58:46;;;;;;;;;;;;;;;1.36;57.77;101498.66;4990871;28;20006;-70
2023/12/14 06:01:11;;;;;;;;;;;;;;;1.23;57.92;101509.72;4984968;28;19918;-70
2023/12/14 06:03:36;;;;;;;;;;;;;;;1.12;58.79;101504.47;4989390;28;19953;-70
2023/12/14 06:06:02;;;;;;;;;;;;;;;1.37;58.01;101513.25;4986465;28;19960;-70
2023/12/14 06:08:27;;;;;;;;;;;;;;;1.34;58.18;101520.97;4972535;28;19953;-70
2023/12/14 06:10:53;;;;;;;;;;;;;;;1.18;58.32;101513.97;4986092;28;19928;-67
2023/12/14 06:13:18;;;;;;;;;;;;;;;1.14;58.67;101522.50;4989032;28;19971;-65
2023/12/14 06:15:43;;;;;;;;;;;;;;;1.25;58.42;101526.03;4989801;28;20387;-66
2023/12/14 06:18:09;;;;;;;;;;;;;;;1.28;58.54;101534.66;4983092;28;20463;-65
2023/12/14 06:20:34;;;;;;;;;;;;;;;1.40;58.30;101533.06;4988599;28;20397;-68
2023/12/14 06:22:59;;;;;;;;;;;;;;;1.30;58.51;101537.25;4987044;28;20008;-65
2023/12/14 06:25:25;;;;;;;;;;;;;;;1.44;57.99;101538.28;4989151;28;19917;-66
2023/12/14 06:27:50;;;;;;;;;;;;;;;1.52;58.11;101541.75;4988725;28;20024;-69
2023/12/14 06:30:15;;;;;;;;;;;;;;;1.54;57.67;101546.09;4984896;28;19917;-69
2023/12/14 06:32:41;;;;;;;;;;;;;;;1.61;57.86;101553.00;4989168;28;19921;-69
2023/12/14 06:35:06;;;;;;;;;;;;;;;1.66;57.14;101557.34;4984223;28;19914;-69
2023/12/14 06:37:32;;;;;;;;;;;;;;;1.62;57.83;101557.31;4987512;28;19992;-70
2023/12/14 06:39:57;;;;;;;;;;;;;;;1.62;56.99;101565.91;4986379;28;20384;-70
2023/12/14 06:42:23;;;;;;;;;;;;;;;1.60;57.17;101577.91;4988133;28;20005;-74
2023/12/14 06:44:49;;;;;;;;;;;;;;;1.58;57.71;101578.75;4989283;28;19921;-75
2023/12/14 06:47:14;;;;;;;;;;;;;;;1.68;57.11;101585.69;4983614;28;19921;-76
2023/12/14 06:49:40;;;;;;;;;;;;;;;1.70;57.63;101592.59;4990045;28;20407;-74
2023/12/14 06:52:06;;;;;;;;;;;;;;;1.75;57.16;101604.66;4986182;28;19929;-69
2023/12/14 06:54:33;;;;;;;;;;;;;;;1.69;57.17;101602.91;4988436;28;19917;-70
2023/12/14 06:56:58;;;;;;;;;;;;;;;1.72;57.34;101602.91;4986058;28;19918;-69
2023/12/14 06:59:23;;;;;;;;;;;;;;;1.62;57.80;101602.00;4986147;28;19924;-72
2023/12/14 07:01:49;;;;;;;;;;;;;;;1.60;57.16;101605.41;4991808;28;19913;-77
2023/12/14 07:04:14;;;;;;;;;;;;;;;1.61;57.79;101607.13;4983942;28;20020;-75
2023/12/14 07:06:39;;;;;;;;;;;;;;;1.54;57.81;101613.06;4990382;28;20441;-76
2023/12/14 07:09:05;;;;;;;;;;;;;;;1.58;58.01;101613.09;4984577;28;19921;-76
2023/12/14 07:11:30;;;;;;;;;;;;;;;1.52;57.93;101616.47;4988895;28;19921;-72
2023/12/14 07:13:55;;;;;;;;;;;;;;;1.57;58.15;101615.66;4986530;28;19928;-68
2023/12/14 07:16:21;;;;;;;;;;;;;;;1.71;57.45;101614.09;4987150;28;20705;-76
2023/12/14 07:18:46;;;;;;;;;;;;;;;1.67;57.77;101620.06;4987352;28;20510;-73
2023/12/14 07:21:12;;;;;;;;;;;;;;;1.71;57.81;101626.97;4981635;28;19920;-71
2023/12/14 07:23:37;;;;;;;;;;;;;;;1.65;57.40;101626.91;4988835;28;20024;-71
2023/12/14 07:26:03;;;;;;;;;;;;;;;1.69;57.84;101628.69;4984716;28;20039;-74
2023/12/14 07:28:29;;;;;;;;;;;;;;;1.69;57.90;101629.53;4983207;28;19917;-66
2023/12/14 07:30:54;;;;;;;;;;;;;;;1.58;58.06;101631.16;4987399;28;20027;-65
2023/12/14 07:33:20;;;;;;;;;;;;;;;1.67;57.68;101641.53;4981072;28;20291;-67
2023/12/14 07:35:45;;;;;;;;;;;;;;;1.73;57.69;101631.28;4987105;28;20403;-69
2023/12/14 07:38:11;;;;;;;;;;;;;;;1.72;57.84;101633.84;4982303;28;20040;-68
2023/12/14 07:40:38;;;;;;;;;;;;;;;1.62;57.55;101627.75;4987098;28;20594;-68
2023/12/14 07:43:04;;;;;;;;;;;;;;;1.71;57.40;101626.97;4985583;28;19921;-75
2023/12/14 07:45:29;;;;;;;;;;;;;;;1.73;57.56;101630.44;4984910;28;19928;-76
2023/12/14 07:48:22;;;;;;;;;;;;;;;1.78;57.52;101644.22;5016933;27;19986;-69
2023/12/14 07:50:48;;;;;;;;;;;;;;;1.72;57.59;101639.00;5027742;28;20157;-69
2023/12/14 07:53:13;;;;;;;;;;;;;;;1.65;57.69;101643.22;5015946;28;19932;-72
2023/12/14 07:55:39;;;;;;;;;;;;;;;1.61;57.92;101643.19;5025359;28;19936;-71
2023/12/14 07:58:04;;;;;;;;;;;;;;;1.47;57.88;101648.22;5020974;28;19929;-69
2023/12/14 08:00:30;;;;;;;;;;;;;;;1.58;57.96;101656.91;5024878;28;19981;-72
2023/12/14 08:02:55;;;;;;;;;;;;;;;1.61;57.70;101656.06;5025491;27;20273;-69
2023/12/14 08:05:21;;;;;;;;;;;;;;;1.69;57.94;101660.47;5020349;28;19966;-69
2023/12/14 08:07:47;;;;;;;;;;;;;;;1.69;57.52;101657.03;5021488;28;19987;-69
2023/12/14 08:10:13;;;;;;;;;;;;;;;1.75;57.42;101663.94;5020762;28;20360;-69
2023/12/14 08:12:38;;;;;;;;;;;;;;;1.64;57.78;101667.28;5021846;28;20044;-68
2023/12/14 08:15:04;;;;;;;;;;;;;;;1.83;57.18;101673.47;5020049;28;19928;-68
2023/12/14 08:17:30;;;;;;;;;;;;;;;1.75;57.50;101679.41;5022238;28;20016;-70
2023/12/14 08:19:55;;;;;;;;;;;;;;;1.76;57.48;101681.16;5025997;28;19917;-70
2023/12/14 08:22:21;;;;;;;;;;;;;;;1.74;57.29;101683.69;5001866;28;19940;-65
2023/12/14 08:24:47;;;;;;;;;;;;;;;1.72;57.57;101691.41;5005063;28;19925;-65
2023/12/14 08:27:13;;;;;;;;;;;;;;;1.66;57.86;101691.38;4999953;28;19925;-67
2023/12/14 08:29:38;;;;;;;;;;;;;;;1.81;57.11;101693.22;5000574;28;19929;-65
2023/12/14 08:32:04;;;;;;;;;;;;;;;1.89;57.31;101701.88;5001763;28;19921;-65
2023/12/14 08:34:29;;;;;;;;;;;;;;;1.91;56.76;101704.50;5002315;28;20003;-65
2023/12/14 08:36:54;;;;;;;;;;;;;;;1.88;56.85;101713.03;5003923;28;20413;-64
2023/12/14 08:39:20;;;;;;;;;;;;;;;1.87;56.55;101715.63;4995519;28;20598;-65
2023/12/14 08:41:45;;;;;;;;;;;;;;;1.89;56.88;101717.34;5006573;28;19947;-65
2023/12/14 08:44:11;;;;;;;;;;;;;;;1.90;57.11;101721.66;5000315;28;19995;-65
2023/12/14 08:46:40;;;;;;;;;;;;;;;1.74;57.00;101724.94;5000424;28;19957;-65
2023/12/14 08:49:50;;;;;;;;;;;;;;;1.94;56.97;101727.72;5048139;27;19928;-64
2023/12/14 08:52:17;;;;;;;;;;;;;;;1.97;56.85;101727.72;5031833;28;19921;-65
2023/12/14 08:54:44;;;;;;;;;;;;;;;2.02;56.79;101730.34;5014073;28;19929;-65
2023/12/14 08:57:09;;;;;;;;;;;;;;;2.02;56.83;101731.25;5040355;28;19980;-65
2023/12/14 08:59:35;;;;;;;;;;;;;;;2.00;56.52;101737.22;5044340;28;20434;-65
2023/12/14 09:02:00;;;;;;;;;;;;;;;1.97;56.55;101742.34;5015609;28;20414;-65
2023/12/14 09:06:14;;;;;;;9.85;4.38;;;;;;;2.03;56.31;101760.47;4961075;28;20796;-78
2023/12/14 09:08:40;;;;;;;14.63;3.92;;;;;;;2.02;56.33;101759.59;4927984;28;20052;-79
2023/12/14 09:11:06;;;;;;;16.80;5.18;;;;;;;2.09;56.43;101763.97;4896229;28;20067;-83
2023/12/14 09:13:32;;;;;;;8.65;4.10;;;;;;;2.12;56.27;101771.72;4899162;28;20484;-79
2023/12/14 09:15:57;;;;;;;10.95;4.13;;;;;;;2.14;56.28;101774.31;4880068;28;20039;-79
2023/12/14 09:18:23;;;;;;;11.07;5.32;;;;;;;2.08;55.95;101782.00;4883683;28;20659;-79
2023/12/14 09:20:50;;;;;;;7.30;3.75;;;;;;;2.12;56.38;101781.19;4896535;28;20484;-78
2023/12/14 09:23:16;;;;;;;12.63;4.57;;;;;;;2.13;56.36;101788.06;4899663;28;20125;-78
2023/12/14 09:25:42;;;;;;;15.05;4.80;;;;;;;2.17;56.29;101794.97;4911641;28;20031;-78
2023/12/14 09:28:07;;;;;;;13.48;5.45;;;;;;;2.23;56.14;101787.31;4905885;28;20730;-78
2023/12/14 09:30:33;;;;;;;17.75;6.35;;;;;;;2.22;56.02;101789.84;4910924;28;20064;-77
2023/12/14 09:32:58;;;;;;;13.75;5.65;;;;;;;2.31;56.26;101796.00;4935943;28;20046;-77
2023/12/14 09:35:24;;;;;;;12.65;5.25;;;;;;;2.37;56.16;101799.47;4952083;28;20042;-76
2023/12/14 09:37:50;;;;;;;15.48;5.07;;;;;;;2.31;55.97;101790.84;4944823;28;20047;-76
2023/12/14 09:40:16;;;;;;;6.25;4.13;;;;;;;2.36;56.26;101798.59;4947243;28;20065;-77
2023/12/14 09:42:42;;;;;;;8.57;4.25;;;;;;;2.38;55.96;101801.19;4941992;28;20534;-76
2023/12/14 09:45:11;;;;;;;6.15;3.80;;;;;;;2.50;56.20;101803.88;5026295;28;20077;-76
2023/12/14 09:47:38;;;;;;;13.13;5.03;;;;;;;2.45;55.52;101806.44;4947934;28;20039;-77
2023/12/14 09:50:05;;;;;;;8.98;4.38;;;;;;;2.47;55.96;101803.88;4948792;28;20035;-77
2023/12/14 09:52:30;;;;;;;9.80;4.65;;;;;;;2.62;55.62;101809.13;4927023;28;20106;-76
2023/12/14 09:54:56;;;;;;;14.38;5.40;;;;;;;2.54;54.67;101814.25;5027471;28;20032;-76
2023/12/14 09:57:22;;;;;;;7.28;4.30;;;;;;;2.54;55.13;101818.53;4936354;28;20121;-77
2023/12/14 09:59:55;;;;;;;7.95;4.25;;;;;;;2.67;55.45;101825.53;4911287;28;20048;-76
2023/12/14 10:02:26;;;;;;;13.07;4.97;;;;;;;2.72;54.82;101823.84;4908372;28;20035;-76
2023/12/14 10:04:52;;;;;;;14.70;4.50;;;;;;;2.67;55.15;101830.72;4921936;28;20053;-75
2023/12/14 10:07:18;;;;;;;11.60;4.18;;;;;;;2.57;54.66;101828.88;4920691;28;20044;-76
2023/12/14 10:09:44;;;;;;;9.98;4.05;;;;;;;2.53;54.85;101835.75;4921477;28;20047;-77
2023/12/14 10:12:10;;;;;;;13.35;4.20;;;;;;;2.54;54.46;101829.72;4922711;28;20622;-76
2023/12/14 10:14:37;;;;;;;9.65;4.35;;;;;;;2.52;54.63;101833.16;4928019;28;20066;-77
2023/12/14 10:17:21;;;;;;;6.30;4.00;;;;;;;2.53;54.80;101829.72;4927783;28;20044;-75
2023/12/14 10:19:47;;;;;;;12.38;4.85;;;;;;;2.56;54.58;101827.16;4930808;28;20050;-76
2023/12/14 10:22:15;;;;;;;14.68;4.60;;;;;;;2.68;54.67;101829.84;4929170;28;20035;-76
2023/12/14 10:24:46;;;;;;;10.75;3.92;;;;;;;2.67;54.46;101840.19;4911789;28;20039;-76
2023/12/14 10:27:12;;;;;;;9.43;3.67;;;;;;;2.66;54.54;101839.28;4912440;28;20043;-76
2023/12/14 10:29:39;;;;;;;10.55;4.53;;;;;;;2.66;54.43;101841.00;4918383;28;20066;-76
2023/12/14 10:32:06;;;;;;;10.88;5.22;;;;;;;2.66;53.87;101836.69;4935677;28;20043;-76
2023/12/14 10:34:35;;;;;;;6.47;3.53;;;;;;;2.68;54.33;101842.75;4904162;28;20288;-76
2023/12/14 10:37:04;;;;;;;9.13;4.53;;;;;;;2.72;54.21;101849.66;4931231;28;20093;-77
2023/12/14 10:39:32;;;;;;;12.20;3.60;;;;;;;2.76;54.09;101850.56;4924306;28;20126;-76
2023/12/14 10:41:58;;;;;;;10.02;3.42;;;;;;;2.68;54.23;101842.75;4910857;28;20044;-76
2023/12/14 10:44:27;;;;;;;8.25;4.40;;;;;;;2.74;54.28;101841.94;4929437;28;20483;-76
2023/12/14 10:46:58;;;;;;;9.90;5.15;;;;;;;2.73;54.34;101841.09;4929501;28;20074;-77
2023/12/14 10:49:28;;;;;;;6.78;3.15;;;;;;;2.75;54.11;101838.50;4940506;28;20059;-76
2023/12/14 10:51:56;;;;;;;6.55;3.58;;;;;;;2.74;53.77;101842.81;4925065;28;20054;-75
2023/12/14 10:54:26;;;;;;;8.45;4.05;;;;;;;2.89;53.96;101831.75;4925901;28;20043;-76
2023/12/14 10:56:58;;;;;;;12.45;5.90;;;;;;;3.03;53.74;101849.91;4925045;28;20396;-76
2023/12/14 10:59:24;;;;;;;11.27;4.68;;;;;;;2.99;53.60;101858.50;4936592;28;20054;-76
2023/12/14 11:01:57;;;;;;;7.20;3.15;;;;;;;2.93;53.24;101853.28;4931387;28;20074;-76
2023/12/14 11:04:24;;;;;;;9.85;3.95;;;;;;;2.81;53.05;101858.34;4930486;28;20055;-76
2023/12/14 11:06:49;;;;;;;9.90;4.57;;;;;;;2.71;53.13;101855.69;4943666;28;20259;-76
2023/12/14 11:09:18;;;;;;;9.07;4.30;;;;;;;2.79;53.21;101857.47;4926199;28;20043;-76
2023/12/14 11:11:49;;;;;;;11.15;4.55;;;;;;;2.82;53.32;101862.66;4927896;28;20122;-76
2023/12/14 11:14:18;;;;;;;14.63;4.60;;;;;;;2.91;53.48;101870.47;4923371;28;20558;-76
2023/12/14 11:16:47;;;;;;;7.97;3.30;;;;;;;2.86;53.10;101872.16;4922190;28;20042;-76
2023/12/14 11:19:21;;;;;;;9.05;3.97;;;;;;;2.99;53.59;101871.41;4921060;28;20101;-76
2023/12/14 11:21:48;;;;;;;9.18;3.30;;;;;;;3.01;53.28;101877.44;4922730;28;20037;-76
2023/12/14 11:24:13;;;;;;;6.80;3.70;;;;;;;3.07;53.29;101877.50;4927555;28;20043;-75
2023/12/14 11:26:40;;;;;;;12.95;4.20;;;;;;;3.11;53.00;101878.38;4916243;28;20035;-76
2023/12/14 11:29:06;;;;;;;10.00;4.13;;;;;;;3.13;53.42;101879.25;4909837;28;20055;-76
2023/12/14 11:31:32;;;;;;;7.60;3.20;;;;;;;3.11;53.38;101875.78;4914320;28;20628;-76
2023/12/14 11:34:00;;;;;;;12.43;5.10;;;;;;;3.16;52.85;101874.13;4897150;28;20040;-75
2023/12/14 11:36:26;;;;;;;11.68;3.83;;;;;;;3.19;52.40;101871.53;4912403;28;20028;-76
2023/12/14 11:38:54;;;;;;;7.70;4.25;;;;;;;3.04;53.00;101872.28;4914794;28;20288;-76
2023/12/14 11:41:21;;;;;;;8.65;4.60;;;;;;;3.23;53.76;101877.63;4907398;28;20070;-76
2023/12/14 11:43:46;;;;;;;11.60;4.93;;;;;;;3.57;52.98;101879.56;4918032;28;20043;-76
2023/12/14 11:46:13;;;;;;;11.52;4.95;;;;;;;3.69;52.77;101883.06;4931820;28;20043;-77
2023/12/14 11:48:38;;;;;;;8.00;4.63;;;;;;;4.07;51.62;101879.75;4926849;28;20474;-77
2023/12/14 11:51:05;;;;;;;14.95;4.55;;;;;;;4.09;51.64;101875.47;4930343;28;20062;-77
2023/12/14 11:53:31;;;;;;;11.75;5.20;;;;;;;3.77;52.16;101878.78;4927604;28;20056;-76
2023/12/14 11:55:56;;;;;;;12.15;4.30;;;;;;;3.66;52.09;101878.75;4915300;28;20446;-76
2023/12/14 11:58:24;;;;;;;13.75;4.22;;;;;;;3.83;52.29;101886.59;4918353;28;20048;-76
2023/12/14 12:00:50;;;;;;;9.43;3.38;;;;;;;3.78;51.77;101881.41;4915895;28;20035;-76
2023/12/14 12:03:19;;;;;;;11.13;3.70;;;;;;;3.89;50.67;101883.16;4925667;28;20093;-75
2023/12/14 12:05:46;;;;;;;8.50;3.38;;;;;;;3.84;50.78;101877.97;4910569;28;20077;-76
2023/12/14 12:08:13;;;;;;;11.70;3.70;;;;;;;3.64;51.66;101874.44;4924706;28;20187;-76
2023/12/14 12:10:39;;;;;;;9.48;4.85;;;;;;;3.65;51.60;101870.97;4909630;28;20035;-76
2023/12/14 12:13:07;;;;;;;8.00;3.35;;;;;;;3.70;52.08;101887.41;4927275;28;20069;-76
2023/12/14 12:15:35;;;;;;;12.68;4.15;;;;;;;3.57;51.56;101883.88;4934978;28;20085;-76
2023/12/14 12:18:09;;;;;;;7.88;4.53;;;;;;;3.65;52.12;101891.66;4913391;28;20077;-76
2023/12/14 12:20:35;;;;;;;14.60;3.67;;;;;;;3.70;51.67;101900.31;4926113;28;20070;-76